sensor_id;sensor_type;location;lat;lon;timestamp;temperature;humidity
37300;DHT22;23184;51.902;12.836;2022-09-24T00:01:09;11.60;99.90
37300;DHT22;23184;51.902;12.836;2022-09-24T00:03:35;11.60;99.90
37300;DHT22;23184;51.902;12.836;2022-09-24T00:06:02;11.60;99.90
37300;DHT22;23184;51.902;12.836;2022-09-24T00:08:28;11.60;99.90
37300;DHT22;23184;51.902;12.836;2022-09-24T00:10:54;11.50;99.90
37300;DHT22;23184;51.902;12.836;2022-09-24T00:13:21;11.50;99.90
37300;DHT22;23184;51.902;12.836;2022-09-24T00:15:48;11.60;99.90
37300;DHT22;23184;51.902;12.836;2022-09-24T00:18:16;11.50;99.90
37300;DHT22;23184;51.902;12.836;2022-09-24T00:20:41;11.60;99.90
37300;DHT22;23184;51.902;12.836;2022-09-24T00:23:08;11.60;99.90
37300;DHT22;23184;51.902;12.836;2022-09-24T00:25:41;11.50;99.90
37300;DHT22;23184;51.902;12.836;2022-09-24T00:28:26;11.50;99.90
37300;DHT22;23184;51.902;12.836;2022-09-24T00:30:51;11.50;99.90
37300;DHT22;23184;51.902;12.836;2022-09-24T00:33:17;11.50;99.90
37300;DHT22;23184;51.902;12.836;2022-09-24T00:35:42;11.50;99.90
37300;DHT22;23184;51.902;12.836;2022-09-24T00:38:09;11.40;99.90
37300;DHT22;23184;51.902;12.836;2022-09-24T00:40:36;11.40;99.90
37300;DHT22;23184;51.902;12.836;2022-09-24T00:43:29;11.40;99.90
37300;DHT22;23184;51.902;12.836;2022-09-24T00:46:11;11.40;99.90
37300;DHT22;23184;51.902;12.836;2022-09-24T00:48:39;11.40;99.90
37300;DHT22;23184;51.902;12.836;2022-09-24T00:51:06;11.40;99.90
37300;DHT22;23184;51.902;12.836;2022-09-24T00:53:32;11.40;99.90
37300;DHT22;23184;51.902;12.836;2022-09-24T00:56:00;11.40;99.90
37300;DHT22;23184;51.902;12.836;2022-09-24T00:58:28;11.40;99.90
37300;DHT22;23184;51.902;12.836;2022-09-24T01:01:03;11.40;99.90
37300;DHT22;23184;51.902;12.836;2022-09-24T01:03:31;11.40;99.90
37300;DHT22;23184;51.902;12.836;2022-09-24T01:05:57;11.40;99.90
37300;DHT22;23184;51.902;12.836;2022-09-24T01:08:23;11.40;99.90
37300;DHT22;23184;51.902;12.836;2022-09-24T01:11:10;11.40;99.90
37300;DHT22;23184;51.902;12.836;2022-09-24T01:16:43;11.30;99.90
37300;DHT22;23184;51.902;12.836;2022-09-24T01:21:53;11.20;99.90
37300;DHT22;23184;51.902;12.836;2022-09-24T01:27:24;11.10;99.90
37300;DHT22;23184;51.902;12.836;2022-09-24T01:30:03;11.00;99.90
37300;DHT22;23184;51.902;12.836;2022-09-24T01:35:19;10.90;99.90
37300;DHT22;23184;51.902;12.836;2022-09-24T01:37:53;10.90;99.90
37300;DHT22;23184;51.902;12.836;2022-09-24T01:40:21;10.80;99.90
37300;DHT22;23184;51.902;12.836;2022-09-24T01:42:49;10.80;99.90
37300;DHT22;23184;51.902;12.836;2022-09-24T01:45:17;10.80;99.90
37300;DHT22;23184;51.902;12.836;2022-09-24T01:47:43;10.80;99.90
37300;DHT22;23184;51.902;12.836;2022-09-24T01:50:13;10.80;99.90
37300;DHT22;23184;51.902;12.836;2022-09-24T01:52:49;10.80;99.90
37300;DHT22;23184;51.902;12.836;2022-09-24T01:55:19;10.80;99.90
37300;DHT22;23184;51.902;12.836;2022-09-24T01:57:55;10.80;99.90
37300;DHT22;23184;51.902;12.836;2022-09-24T02:00:23;10.80;99.90
37300;DHT22;23184;51.902;12.836;2022-09-24T02:02:54;10.70;99.90
37300;DHT22;23184;51.902;12.836;2022-09-24T02:08:23;10.70;99.90
37300;DHT22;23184;51.902;12.836;2022-09-24T02:11:00;10.70;99.90
37300;DHT22;23184;51.902;12.836;2022-09-24T02:13:32;10.60;99.90
37300;DHT22;23184;51.902;12.836;2022-09-24T02:16:00;10.60;99.90
37300;DHT22;23184;51.902;12.836;2022-09-24T02:18:32;10.60;99.90
37300;DHT22;23184;51.902;12.836;2022-09-24T02:21:01;10.50;99.90
37300;DHT22;23184;51.902;12.836;2022-09-24T02:23:28;10.50;99.90
37300;DHT22;23184;51.902;12.836;2022-09-24T02:25:58;10.50;99.90
37300;DHT22;23184;51.902;12.836;2022-09-24T02:28:26;10.50;99.90
37300;DHT22;23184;51.902;12.836;2022-09-24T02:31:04;10.40;99.90
37300;DHT22;23184;51.902;12.836;2022-09-24T02:33:34;10.50;99.90
37300;DHT22;23184;51.902;12.836;2022-09-24T02:36:19;10.50;99.90
37300;DHT22;23184;51.902;12.836;2022-09-24T02:38:44;10.50;99.90
37300;DHT22;23184;51.902;12.836;2022-09-24T02:41:12;10.50;99.90
37300;DHT22;23184;51.902;12.836;2022-09-24T02:43:38;10.50;99.90
37300;DHT22;23184;51.902;12.836;2022-09-24T02:46:06;10.60;99.90
37300;DHT22;23184;51.902;12.836;2022-09-24T02:48:37;10.60;99.90
37300;DHT22;23184;51.902;12.836;2022-09-24T02:51:03;10.60;99.90
37300;DHT22;23184;51.902;12.836;2022-09-24T02:53:30;10.60;99.90
37300;DHT22;23184;51.902;12.836;2022-09-24T02:55:56;10.60;99.90
37300;DHT22;23184;51.902;12.836;2022-09-24T02:58:23;10.60;99.90
37300;DHT22;23184;51.902;12.836;2022-09-24T03:00:49;10.50;99.90
37300;DHT22;23184;51.902;12.836;2022-09-24T03:03:14;10.50;99.90
37300;DHT22;23184;51.902;12.836;2022-09-24T03:05:40;10.50;99.90
37300;DHT22;23184;51.902;12.836;2022-09-24T03:08:05;10.50;99.90
37300;DHT22;23184;51.902;12.836;2022-09-24T03:10:32;10.40;99.90
37300;DHT22;23184;51.902;12.836;2022-09-24T03:12:57;10.40;99.90
37300;DHT22;23184;51.902;12.836;2022-09-24T03:15:23;10.40;99.90
37300;DHT22;23184;51.902;12.836;2022-09-24T03:17:48;10.40;99.90
37300;DHT22;23184;51.902;12.836;2022-09-24T03:20:14;10.40;99.90
37300;DHT22;23184;51.902;12.836;2022-09-24T03:22:39;10.40;99.90
37300;DHT22;23184;51.902;12.836;2022-09-24T03:25:05;10.30;99.90
37300;DHT22;23184;51.902;12.836;2022-09-24T03:27:31;10.30;99.90
37300;DHT22;23184;51.902;12.836;2022-09-24T03:29:56;10.30;99.90
37300;DHT22;23184;51.902;12.836;2022-09-24T03:32:40;10.20;99.90
37300;DHT22;23184;51.902;12.836;2022-09-24T03:35:06;10.20;99.90
37300;DHT22;23184;51.902;12.836;2022-09-24T03:37:35;10.20;99.90
37300;DHT22;23184;51.902;12.836;2022-09-24T03:40:02;10.20;99.90
37300;DHT22;23184;51.902;12.836;2022-09-24T03:42:28;10.10;99.90
37300;DHT22;23184;51.902;12.836;2022-09-24T03:44:53;10.10;99.90
37300;DHT22;23184;51.902;12.836;2022-09-24T03:47:19;10.10;99.90
37300;DHT22;23184;51.902;12.836;2022-09-24T03:49:45;10.10;99.90
37300;DHT22;23184;51.902;12.836;2022-09-24T03:52:10;10.10;99.90
37300;DHT22;23184;51.902;12.836;2022-09-24T03:54:37;10.10;99.90
37300;DHT22;23184;51.902;12.836;2022-09-24T03:57:02;10.10;99.90
37300;DHT22;23184;51.902;12.836;2022-09-24T03:59:28;10.10;99.90
37300;DHT22;23184;51.902;12.836;2022-09-24T04:01:53;10.00;99.90
37300;DHT22;23184;51.902;12.836;2022-09-24T04:04:19;10.00;99.90
37300;DHT22;23184;51.902;12.836;2022-09-24T04:06:45;10.00;99.90
37300;DHT22;23184;51.902;12.836;2022-09-24T04:09:10;10.00;99.90
37300;DHT22;23184;51.902;12.836;2022-09-24T04:11:36;10.00;99.90
37300;DHT22;23184;51.902;12.836;2022-09-24T04:14:02;10.00;99.90
37300;DHT22;23184;51.902;12.836;2022-09-24T04:16:27;10.00;99.90
37300;DHT22;23184;51.902;12.836;2022-09-24T04:18:54;9.90;99.90
37300;DHT22;23184;51.902;12.836;2022-09-24T04:21:20;9.90;99.90
37300;DHT22;23184;51.902;12.836;2022-09-24T04:23:46;9.90;99.90
37300;DHT22;23184;51.902;12.836;2022-09-24T04:26:11;9.80;99.90
37300;DHT22;23184;51.902;12.836;2022-09-24T04:28:37;9.80;99.90
37300;DHT22;23184;51.902;12.836;2022-09-24T04:31:03;9.80;99.90
37300;DHT22;23184;51.902;12.836;2022-09-24T04:33:28;9.80;99.90
37300;DHT22;23184;51.902;12.836;2022-09-24T04:35:54;9.80;99.90
37300;DHT22;23184;51.902;12.836;2022-09-24T04:38:19;9.80;99.90
37300;DHT22;23184;51.902;12.836;2022-09-24T04:40:45;9.80;99.90
37300;DHT22;23184;51.902;12.836;2022-09-24T04:43:11;9.80;99.90
37300;DHT22;23184;51.902;12.836;2022-09-24T04:45:37;9.70;99.90
37300;DHT22;23184;51.902;12.836;2022-09-24T04:48:03;9.70;99.90
37300;DHT22;23184;51.902;12.836;2022-09-24T04:50:29;9.70;99.90
37300;DHT22;23184;51.902;12.836;2022-09-24T04:52:59;9.70;99.90
37300;DHT22;23184;51.902;12.836;2022-09-24T04:55:25;9.70;99.90
37300;DHT22;23184;51.902;12.836;2022-09-24T04:57:55;9.70;99.90
37300;DHT22;23184;51.902;12.836;2022-09-24T05:00:20;9.70;99.90
37300;DHT22;23184;51.902;12.836;2022-09-24T05:02:46;9.70;99.90
37300;DHT22;23184;51.902;12.836;2022-09-24T05:05:13;9.80;99.90
37300;DHT22;23184;51.902;12.836;2022-09-24T05:07:40;9.70;99.90
37300;DHT22;23184;51.902;12.836;2022-09-24T05:10:05;9.70;99.90
37300;DHT22;23184;51.902;12.836;2022-09-24T05:12:31;9.80;99.90
37300;DHT22;23184;51.902;12.836;2022-09-24T05:14:58;9.80;99.90
37300;DHT22;23184;51.902;12.836;2022-09-24T05:17:23;9.90;99.90
37300;DHT22;23184;51.902;12.836;2022-09-24T05:19:49;9.90;99.90
37300;DHT22;23184;51.902;12.836;2022-09-24T05:22:14;10.00;99.90
37300;DHT22;23184;51.902;12.836;2022-09-24T05:24:40;10.00;99.90
37300;DHT22;23184;51.902;12.836;2022-09-24T05:27:05;10.00;99.90
37300;DHT22;23184;51.902;12.836;2022-09-24T05:29:42;10.00;99.90
37300;DHT22;23184;51.902;12.836;2022-09-24T05:32:16;10.10;99.90
37300;DHT22;23184;51.902;12.836;2022-09-24T05:34:42;10.10;99.90
37300;DHT22;23184;51.902;12.836;2022-09-24T05:37:09;9.90;99.90
37300;DHT22;23184;51.902;12.836;2022-09-24T05:39:34;9.90;99.90
37300;DHT22;23184;51.902;12.836;2022-09-24T05:42:00;10.00;99.90
37300;DHT22;23184;51.902;12.836;2022-09-24T05:44:30;10.00;99.90
37300;DHT22;23184;51.902;12.836;2022-09-24T05:46:56;10.10;99.90
37300;DHT22;23184;51.902;12.836;2022-09-24T05:49:23;10.10;99.90
37300;DHT22;23184;51.902;12.836;2022-09-24T05:51:49;10.20;99.90
37300;DHT22;23184;51.902;12.836;2022-09-24T05:54:16;10.20;99.90
37300;DHT22;23184;51.902;12.836;2022-09-24T05:56:42;10.20;99.90
37300;DHT22;23184;51.902;12.836;2022-09-24T05:59:08;10.20;99.90
37300;DHT22;23184;51.902;12.836;2022-09-24T06:01:33;10.30;99.90
37300;DHT22;23184;51.902;12.836;2022-09-24T06:03:59;10.30;99.90
37300;DHT22;23184;51.902;12.836;2022-09-24T06:06:26;10.30;99.90
37300;DHT22;23184;51.902;12.836;2022-09-24T06:08:52;10.40;99.90
37300;DHT22;23184;51.902;12.836;2022-09-24T06:11:18;10.40;99.90
37300;DHT22;23184;51.902;12.836;2022-09-24T06:13:47;10.40;99.90
37300;DHT22;23184;51.902;12.836;2022-09-24T06:16:12;10.40;99.90
37300;DHT22;23184;51.902;12.836;2022-09-24T06:18:40;10.50;99.90
37300;DHT22;23184;51.902;12.836;2022-09-24T06:21:13;10.50;99.90
37300;DHT22;23184;51.902;12.836;2022-09-24T06:23:40;10.50;99.90
37300;DHT22;23184;51.902;12.836;2022-09-24T06:26:08;10.50;99.90
37300;DHT22;23184;51.902;12.836;2022-09-24T06:28:35;10.60;99.90
37300;DHT22;23184;51.902;12.836;2022-09-24T06:31:01;10.60;99.90
37300;DHT22;23184;51.902;12.836;2022-09-24T06:33:27;10.60;99.90
37300;DHT22;23184;51.902;12.836;2022-09-24T06:35:53;10.70;99.90
37300;DHT22;23184;51.902;12.836;2022-09-24T06:38:19;10.70;99.90
37300;DHT22;23184;51.902;12.836;2022-09-24T06:40:46;10.80;99.90
37300;DHT22;23184;51.902;12.836;2022-09-24T06:43:15;10.90;99.90
37300;DHT22;23184;51.902;12.836;2022-09-24T06:45:41;10.90;99.90
37300;DHT22;23184;51.902;12.836;2022-09-24T06:48:10;10.90;99.90
37300;DHT22;23184;51.902;12.836;2022-09-24T06:50:39;10.70;99.90
37300;DHT22;23184;51.902;12.836;2022-09-24T06:53:06;10.80;99.90
37300;DHT22;23184;51.902;12.836;2022-09-24T06:55:33;10.70;99.90
37300;DHT22;23184;51.902;12.836;2022-09-24T06:58:06;10.80;99.90
37300;DHT22;23184;51.902;12.836;2022-09-24T07:00:32;10.90;99.90
37300;DHT22;23184;51.902;12.836;2022-09-24T07:02:58;11.00;99.90
37300;DHT22;23184;51.902;12.836;2022-09-24T07:05:24;11.00;99.90
37300;DHT22;23184;51.902;12.836;2022-09-24T07:07:49;11.00;99.90
37300;DHT22;23184;51.902;12.836;2022-09-24T07:10:15;11.20;99.90
37300;DHT22;23184;51.902;12.836;2022-09-24T07:12:41;11.20;99.90
37300;DHT22;23184;51.902;12.836;2022-09-24T07:15:08;11.30;99.90
37300;DHT22;23184;51.902;12.836;2022-09-24T07:17:33;11.20;99.90
37300;DHT22;23184;51.902;12.836;2022-09-24T07:19:59;11.30;99.90
37300;DHT22;23184;51.902;12.836;2022-09-24T07:22:25;11.80;99.90
37300;DHT22;23184;51.902;12.836;2022-09-24T07:24:50;12.40;99.90
37300;DHT22;23184;51.902;12.836;2022-09-24T07:27:16;12.60;99.90
37300;DHT22;23184;51.902;12.836;2022-09-24T07:29:43;13.20;99.90
37300;DHT22;23184;51.902;12.836;2022-09-24T07:32:09;13.80;99.90
37300;DHT22;23184;51.902;12.836;2022-09-24T07:34:34;14.40;99.90
37300;DHT22;23184;51.902;12.836;2022-09-24T07:37:00;14.60;99.90
37300;DHT22;23184;51.902;12.836;2022-09-24T07:39:25;14.70;99.90
37300;DHT22;23184;51.902;12.836;2022-09-24T07:41:51;15.00;99.90
37300;DHT22;23184;51.902;12.836;2022-09-24T07:44:18;15.50;99.90
37300;DHT22;23184;51.902;12.836;2022-09-24T07:46:46;15.70;99.90
37300;DHT22;23184;51.902;12.836;2022-09-24T07:49:12;15.30;99.90
37300;DHT22;23184;51.902;12.836;2022-09-24T07:51:38;15.10;99.90
37300;DHT22;23184;51.902;12.836;2022-09-24T07:54:03;15.30;99.90
37300;DHT22;23184;51.902;12.836;2022-09-24T07:56:30;15.90;99.90
37300;DHT22;23184;51.902;12.836;2022-09-24T07:58:56;15.90;99.90
37300;DHT22;23184;51.902;12.836;2022-09-24T08:01:22;15.70;99.90
37300;DHT22;23184;51.902;12.836;2022-09-24T08:03:51;15.10;99.90
37300;DHT22;23184;51.902;12.836;2022-09-24T08:06:16;15.20;99.90
37300;DHT22;23184;51.902;12.836;2022-09-24T08:08:42;15.80;99.90
37300;DHT22;23184;51.902;12.836;2022-09-24T08:11:09;16.60;99.90
37300;DHT22;23184;51.902;12.836;2022-09-24T08:13:36;16.90;99.90
37300;DHT22;23184;51.902;12.836;2022-09-24T08:16:03;17.50;99.90
37300;DHT22;23184;51.902;12.836;2022-09-24T08:18:29;17.60;99.90
37300;DHT22;23184;51.902;12.836;2022-09-24T08:21:05;16.90;99.90
37300;DHT22;23184;51.902;12.836;2022-09-24T08:23:32;15.90;99.90
37300;DHT22;23184;51.902;12.836;2022-09-24T08:25:58;15.80;99.90
37300;DHT22;23184;51.902;12.836;2022-09-24T08:28:24;15.50;99.90
37300;DHT22;23184;51.902;12.836;2022-09-24T08:30:49;15.40;99.90
37300;DHT22;23184;51.902;12.836;2022-09-24T08:33:16;15.20;99.90
37300;DHT22;23184;51.902;12.836;2022-09-24T08:35:42;15.20;99.90
37300;DHT22;23184;51.902;12.836;2022-09-24T08:38:07;16.00;99.90
37300;DHT22;23184;51.902;12.836;2022-09-24T08:40:45;16.50;99.90
37300;DHT22;23184;51.902;12.836;2022-09-24T08:43:28;16.60;99.90
37300;DHT22;23184;51.902;12.836;2022-09-24T08:45:59;16.60;99.90
37300;DHT22;23184;51.902;12.836;2022-09-24T08:48:48;16.80;99.90
37300;DHT22;23184;51.902;12.836;2022-09-24T08:51:18;16.80;99.90
37300;DHT22;23184;51.902;12.836;2022-09-24T08:54:04;17.20;99.90
37300;DHT22;23184;51.902;12.836;2022-09-24T08:56:34;17.10;99.90
37300;DHT22;23184;51.902;12.836;2022-09-24T08:59:49;16.40;99.90
37300;DHT22;23184;51.902;12.836;2022-09-24T09:08:03;16.90;99.90
37300;DHT22;23184;51.902;12.836;2022-09-24T09:10:36;16.20;99.90
37300;DHT22;23184;51.902;12.836;2022-09-24T09:13:17;16.50;99.90
37300;DHT22;23184;51.902;12.836;2022-09-24T09:15:50;16.50;99.90
37300;DHT22;23184;51.902;12.836;2022-09-24T09:18:29;17.00;99.90
37300;DHT22;23184;51.902;12.836;2022-09-24T09:21:26;17.80;99.90
37300;DHT22;23184;51.902;12.836;2022-09-24T09:23:50;19.20;99.90
37300;DHT22;23184;51.902;12.836;2022-09-24T09:26:17;19.10;99.90
37300;DHT22;23184;51.902;12.836;2022-09-24T09:28:45;19.40;99.90
37300;DHT22;23184;51.902;12.836;2022-09-24T09:44:51;20.30;99.90
37300;DHT22;23184;51.902;12.836;2022-09-24T09:47:41;20.20;99.90
37300;DHT22;23184;51.902;12.836;2022-09-24T09:50:43;21.20;99.90
37300;DHT22;23184;51.902;12.836;2022-09-24T09:53:28;21.20;99.90
37300;DHT22;23184;51.902;12.836;2022-09-24T09:56:05;20.90;99.90
37300;DHT22;23184;51.902;12.836;2022-09-24T09:58:36;21.30;99.90
37300;DHT22;23184;51.902;12.836;2022-09-24T10:01:14;21.60;99.90
37300;DHT22;23184;51.902;12.836;2022-09-24T10:06:28;19.60;99.90
37300;DHT22;23184;51.902;12.836;2022-09-24T10:09:12;18.80;99.90
37300;DHT22;23184;51.902;12.836;2022-09-24T10:11:39;19.40;99.90
37300;DHT22;23184;51.902;12.836;2022-09-24T10:14:11;19.10;99.90
37300;DHT22;23184;51.902;12.836;2022-09-24T10:16:42;19.00;99.90
37300;DHT22;23184;51.902;12.836;2022-09-24T10:19:25;19.10;99.90
37300;DHT22;23184;51.902;12.836;2022-09-24T10:21:54;18.60;99.90
37300;DHT22;23184;51.902;12.836;2022-09-24T10:24:24;18.80;99.90
37300;DHT22;23184;51.902;12.836;2022-09-24T10:26:50;19.00;99.90
37300;DHT22;23184;51.902;12.836;2022-09-24T10:29:30;19.40;99.90
37300;DHT22;23184;51.902;12.836;2022-09-24T10:32:23;19.40;99.90
37300;DHT22;23184;51.902;12.836;2022-09-24T10:34:56;19.70;99.90
37300;DHT22;23184;51.902;12.836;2022-09-24T10:37:22;20.60;99.90
37300;DHT22;23184;51.902;12.836;2022-09-24T10:40:11;21.20;99.90
37300;DHT22;23184;51.902;12.836;2022-09-24T10:42:37;21.60;99.90
37300;DHT22;23184;51.902;12.836;2022-09-24T10:45:05;21.60;99.90
37300;DHT22;23184;51.902;12.836;2022-09-24T10:48:04;22.00;99.90
37300;DHT22;23184;51.902;12.836;2022-09-24T10:50:39;22.60;99.90
37300;DHT22;23184;51.902;12.836;2022-09-24T10:58:26;21.70;99.90
37300;DHT22;23184;51.902;12.836;2022-09-24T11:06:39;24.40;98.30
37300;DHT22;23184;51.902;12.836;2022-09-24T11:12:09;23.90;93.00
37300;DHT22;23184;51.902;12.836;2022-09-24T11:17:33;23.80;95.00
37300;DHT22;23184;51.902;12.836;2022-09-24T11:20:15;24.40;95.00
37300;DHT22;23184;51.902;12.836;2022-09-24T11:30:37;22.80;94.00
37300;DHT22;23184;51.902;12.836;2022-09-24T11:36:14;21.50;97.40
37300;DHT22;23184;51.902;12.836;2022-09-24T11:52:51;22.60;95.00
37300;DHT22;23184;51.902;12.836;2022-09-24T11:55:32;22.60;94.80
37300;DHT22;23184;51.902;12.836;2022-09-24T11:58:05;22.40;94.70
37300;DHT22;23184;51.902;12.836;2022-09-24T12:00:37;22.50;95.50
37300;DHT22;23184;51.902;12.836;2022-09-24T12:03:15;22.10;96.00
37300;DHT22;23184;51.902;12.836;2022-09-24T12:05:46;21.70;96.50
37300;DHT22;23184;51.902;12.836;2022-09-24T12:08:28;22.00;96.90
37300;DHT22;23184;51.902;12.836;2022-09-24T12:11:12;22.00;96.00
37300;DHT22;23184;51.902;12.836;2022-09-24T12:13:40;21.10;96.30
37300;DHT22;23184;51.902;12.836;2022-09-24T12:16:19;20.70;97.00
37300;DHT22;23184;51.902;12.836;2022-09-24T12:19:02;21.50;97.30
37300;DHT22;23184;51.902;12.836;2022-09-24T12:21:36;22.70;96.30
37300;DHT22;23184;51.902;12.836;2022-09-24T12:24:12;23.10;94.70
37300;DHT22;23184;51.902;12.836;2022-09-24T12:26:42;21.90;94.80
37300;DHT22;23184;51.902;12.836;2022-09-24T12:32:48;23.70;92.90
37300;DHT22;23184;51.902;12.836;2022-09-24T12:38:06;26.10;91.90
37300;DHT22;23184;51.902;12.836;2022-09-24T12:40:39;27.50;88.10
37300;DHT22;23184;51.902;12.836;2022-09-24T12:43:33;27.50;82.80
37300;DHT22;23184;51.902;12.836;2022-09-24T12:46:03;28.50;81.50
37300;DHT22;23184;51.902;12.836;2022-09-24T12:51:02;28.20;79.40
37300;DHT22;23184;51.902;12.836;2022-09-24T12:53:35;28.50;77.20
37300;DHT22;23184;51.902;12.836;2022-09-24T12:56:03;28.30;74.00
37300;DHT22;23184;51.902;12.836;2022-09-24T12:58:40;28.70;74.50
37300;DHT22;23184;51.902;12.836;2022-09-24T13:03:40;28.20;72.40
37300;DHT22;23184;51.902;12.836;2022-09-24T13:06:33;27.80;72.00
37300;DHT22;23184;51.902;12.836;2022-09-24T13:08:59;27.30;72.30
37300;DHT22;23184;51.902;12.836;2022-09-24T13:11:31;27.10;75.70
37300;DHT22;23184;51.902;12.836;2022-09-24T13:16:42;29.00;72.10
37300;DHT22;23184;51.902;12.836;2022-09-24T13:21:57;30.90;66.90
37300;DHT22;23184;51.902;12.836;2022-09-24T13:24:33;32.50;64.30
37300;DHT22;23184;51.902;12.836;2022-09-24T13:27:37;33.20;64.60
37300;DHT22;23184;51.902;12.836;2022-09-24T13:32:33;31.60;66.60
37300;DHT22;23184;51.902;12.836;2022-09-24T13:35:10;31.00;64.00
37300;DHT22;23184;51.902;12.836;2022-09-24T13:37:41;32.50;67.20
37300;DHT22;23184;51.902;12.836;2022-09-24T13:40:20;33.70;64.40
37300;DHT22;23184;51.902;12.836;2022-09-24T13:45:35;35.00;60.70
37300;DHT22;23184;51.902;12.836;2022-09-24T13:48:04;35.20;56.40
37300;DHT22;23184;51.902;12.836;2022-09-24T13:50:50;34.80;55.90
37300;DHT22;23184;51.902;12.836;2022-09-24T13:53:45;33.30;56.20
37300;DHT22;23184;51.902;12.836;2022-09-24T13:56:16;31.70;58.10
37300;DHT22;23184;51.902;12.836;2022-09-24T13:58:42;31.10;59.70
37300;DHT22;23184;51.902;12.836;2022-09-24T14:01:14;30.60;61.00
37300;DHT22;23184;51.902;12.836;2022-09-24T14:03:40;29.80;62.10
37300;DHT22;23184;51.902;12.836;2022-09-24T14:06:14;30.00;62.60
37300;DHT22;23184;51.902;12.836;2022-09-24T14:08:42;30.20;61.80
37300;DHT22;23184;51.902;12.836;2022-09-24T14:11:15;30.20;61.00
37300;DHT22;23184;51.902;12.836;2022-09-24T14:13:41;30.30;60.50
37300;DHT22;23184;51.902;12.836;2022-09-24T14:16:14;30.80;60.20
37300;DHT22;23184;51.902;12.836;2022-09-24T14:18:40;31.60;59.80
37300;DHT22;23184;51.902;12.836;2022-09-24T14:21:26;32.40;59.50
37300;DHT22;23184;51.902;12.836;2022-09-24T14:24:07;32.10;57.60
37300;DHT22;23184;51.902;12.836;2022-09-24T14:26:46;32.30;57.30
37300;DHT22;23184;51.902;12.836;2022-09-24T14:29:16;32.20;57.20
37300;DHT22;23184;51.902;12.836;2022-09-24T14:31:46;32.70;56.80
37300;DHT22;23184;51.902;12.836;2022-09-24T14:34:34;32.30;56.10
37300;DHT22;23184;51.902;12.836;2022-09-24T14:37:16;32.20;56.30
37300;DHT22;23184;51.902;12.836;2022-09-24T14:39:44;32.00;56.90
37300;DHT22;23184;51.902;12.836;2022-09-24T14:42:20;32.70;56.80
37300;DHT22;23184;51.902;12.836;2022-09-24T14:44:47;32.80;56.60
37300;DHT22;23184;51.902;12.836;2022-09-24T14:49:51;33.30;55.80
37300;DHT22;23184;51.902;12.836;2022-09-24T14:55:18;33.70;54.80
37300;DHT22;23184;51.902;12.836;2022-09-24T14:57:46;33.90;56.20
37300;DHT22;23184;51.902;12.836;2022-09-24T15:00:19;33.10;54.90
37300;DHT22;23184;51.902;12.836;2022-09-24T15:03:01;31.90;55.50
37300;DHT22;23184;51.902;12.836;2022-09-24T15:05:28;30.90;56.50
37300;DHT22;23184;51.902;12.836;2022-09-24T15:10:38;28.10;61.10
37300;DHT22;23184;51.902;12.836;2022-09-24T15:13:12;27.00;62.40
37300;DHT22;23184;51.902;12.836;2022-09-24T15:15:38;26.50;63.40
37300;DHT22;23184;51.902;12.836;2022-09-24T15:18:09;26.10;64.50
37300;DHT22;23184;51.902;12.836;2022-09-24T15:20:35;25.40;66.00
37300;DHT22;23184;51.902;12.836;2022-09-24T15:23:01;24.90;66.90
37300;DHT22;23184;51.902;12.836;2022-09-24T15:25:27;24.70;68.70
37300;DHT22;23184;51.902;12.836;2022-09-24T15:27:53;24.50;70.70
37300;DHT22;23184;51.902;12.836;2022-09-24T15:30:19;24.20;70.20
37300;DHT22;23184;51.902;12.836;2022-09-24T15:32:46;24.10;74.10
37300;DHT22;23184;51.902;12.836;2022-09-24T15:35:13;23.60;76.10
37300;DHT22;23184;51.902;12.836;2022-09-24T15:37:40;23.20;77.80
37300;DHT22;23184;51.902;12.836;2022-09-24T15:42:40;23.00;79.40
37300;DHT22;23184;51.902;12.836;2022-09-24T15:45:18;22.70;80.10
37300;DHT22;23184;51.902;12.836;2022-09-24T15:47:46;22.30;81.60
37300;DHT22;23184;51.902;12.836;2022-09-24T15:50:12;21.90;82.30
37300;DHT22;23184;51.902;12.836;2022-09-24T15:52:49;21.60;83.80
37300;DHT22;23184;51.902;12.836;2022-09-24T15:55:18;21.20;85.40
37300;DHT22;23184;51.902;12.836;2022-09-24T15:57:44;20.90;86.70
37300;DHT22;23184;51.902;12.836;2022-09-24T16:00:22;20.60;88.40
37300;DHT22;23184;51.902;12.836;2022-09-24T16:02:50;20.40;89.80
37300;DHT22;23184;51.902;12.836;2022-09-24T16:05:17;20.30;90.50
37300;DHT22;23184;51.902;12.836;2022-09-24T16:07:43;20.10;91.10
37300;DHT22;23184;51.902;12.836;2022-09-24T16:10:10;20.00;91.50
37300;DHT22;23184;51.902;12.836;2022-09-24T16:12:36;19.80;91.90
37300;DHT22;23184;51.902;12.836;2022-09-24T16:15:03;19.80;92.70
37300;DHT22;23184;51.902;12.836;2022-09-24T16:17:28;19.70;93.00
37300;DHT22;23184;51.902;12.836;2022-09-24T16:19:54;19.50;93.30
37300;DHT22;23184;51.902;12.836;2022-09-24T16:22:20;19.40;93.50
37300;DHT22;23184;51.902;12.836;2022-09-24T16:24:45;19.30;93.70
37300;DHT22;23184;51.902;12.836;2022-09-24T16:27:11;19.30;93.80
37300;DHT22;23184;51.902;12.836;2022-09-24T16:29:36;19.20;94.60
37300;DHT22;23184;51.902;12.836;2022-09-24T16:32:02;19.10;96.30
37300;DHT22;23184;51.902;12.836;2022-09-24T16:34:28;19.00;97.80
37300;DHT22;23184;51.902;12.836;2022-09-24T16:36:54;18.90;99.00
37300;DHT22;23184;51.902;12.836;2022-09-24T16:39:19;18.80;99.80
37300;DHT22;23184;51.902;12.836;2022-09-24T16:41:47;18.70;99.90
37300;DHT22;23184;51.902;12.836;2022-09-24T16:44:13;18.60;99.90
37300;DHT22;23184;51.902;12.836;2022-09-24T16:46:40;18.40;99.90
37300;DHT22;23184;51.902;12.836;2022-09-24T16:49:06;18.30;99.90
37300;DHT22;23184;51.902;12.836;2022-09-24T16:51:32;18.20;99.90
37300;DHT22;23184;51.902;12.836;2022-09-24T16:53:57;18.00;99.90
37300;DHT22;23184;51.902;12.836;2022-09-24T16:56:23;17.90;99.90
37300;DHT22;23184;51.902;12.836;2022-09-24T16:58:49;17.80;99.90
37300;DHT22;23184;51.902;12.836;2022-09-24T17:01:17;17.60;99.90
37300;DHT22;23184;51.902;12.836;2022-09-24T17:03:43;17.50;99.90
37300;DHT22;23184;51.902;12.836;2022-09-24T17:06:37;17.40;99.90
37300;DHT22;23184;51.902;12.836;2022-09-24T17:09:03;17.20;99.90
37300;DHT22;23184;51.902;12.836;2022-09-24T17:11:47;17.10;99.90
37300;DHT22;23184;51.902;12.836;2022-09-24T17:14:14;17.00;99.90
37300;DHT22;23184;51.902;12.836;2022-09-24T17:16:41;16.80;99.90
37300;DHT22;23184;51.902;12.836;2022-09-24T17:19:08;16.80;99.90
37300;DHT22;23184;51.902;12.836;2022-09-24T17:21:35;16.70;99.90
37300;DHT22;23184;51.902;12.836;2022-09-24T17:24:02;16.60;99.90
37300;DHT22;23184;51.902;12.836;2022-09-24T17:28:54;16.40;99.90